createdAt,value
2023-05-31T00:01:51.151Z,3.23
2023-05-31T00:03:53.330Z,3.40
2023-05-31T00:05:55.477Z,3.17
2023-05-31T00:07:57.529Z,3.40
2023-05-31T00:09:59.593Z,3.73
2023-05-31T00:12:01.952Z,3.53
2023-05-31T00:14:04.178Z,3.63
2023-05-31T00:16:18.335Z,3.40
2023-05-31T00:18:29.679Z,3.50
2023-05-31T00:20:31.824Z,3.93
2023-05-31T00:22:33.895Z,3.27
2023-05-31T00:24:35.974Z,3.43
2023-05-31T00:26:38.013Z,3.40
2023-05-31T00:28:40.112Z,3.57
2023-05-31T00:30:42.269Z,3.40
2023-05-31T00:32:44.428Z,4.20
2023-05-31T00:34:46.449Z,3.47
2023-05-31T00:36:48.613Z,3.80
2023-05-31T00:38:50.749Z,3.90
2023-05-31T00:40:52.864Z,3.80
2023-05-31T00:42:55.030Z,3.50
2023-05-31T00:44:57.097Z,4.00
2023-05-31T00:46:59.349Z,3.43
2023-05-31T00:49:01.726Z,3.67
2023-05-31T00:51:03.886Z,3.70
2023-05-31T00:53:06.933Z,3.40
2023-05-31T00:55:10.075Z,3.93
2023-05-31T00:57:13.617Z,3.23
2023-05-31T00:59:16.569Z,3.27
2023-05-31T01:01:19.246Z,3.90
2023-05-31T01:03:21.937Z,3.50
2023-05-31T01:05:24.310Z,3.90
2023-05-31T01:07:26.481Z,4.30
2023-05-31T01:09:29.881Z,3.30
2023-05-31T01:11:53.398Z,3.77
2023-05-31T01:14:17.427Z,3.77
2023-05-31T01:16:43.135Z,3.63
2023-05-31T01:18:46.493Z,3.70
2023-05-31T01:20:50.529Z,4.07
2023-05-31T01:22:59.232Z,4.50
2023-05-31T01:25:02.942Z,3.57
2023-05-31T01:27:06.412Z,3.70
2023-05-31T01:29:10.688Z,3.50
2023-05-31T01:31:16.008Z,4.00
2023-05-31T01:33:19.238Z,4.10
2023-05-31T01:35:21.398Z,3.97
2023-05-31T01:37:23.409Z,3.60
2023-05-31T01:39:25.650Z,4.20
2023-05-31T01:41:28.788Z,4.00
2023-05-31T01:43:31.786Z,4.30
2023-05-31T01:45:34.754Z,4.17
2023-05-31T01:47:36.968Z,3.50
2023-05-31T01:49:39.830Z,3.93
2023-05-31T01:51:42.900Z,4.17
2023-05-31T01:53:45.137Z,3.80
2023-05-31T01:55:47.674Z,3.60
2023-05-31T01:57:50.512Z,4.20
2023-05-31T01:59:53.407Z,3.70
2023-05-31T02:01:56.347Z,3.70
2023-05-31T02:04:01.462Z,3.37
2023-05-31T02:06:03.743Z,3.63
2023-05-31T02:08:05.908Z,4.70
2023-05-31T02:10:09.203Z,3.57
2023-05-31T02:12:12.937Z,4.00
2023-05-31T02:14:14.973Z,3.97
2023-05-31T02:16:17.693Z,3.80
2023-05-31T02:18:22.824Z,3.70
2023-05-31T02:20:27.003Z,3.63
2023-05-31T02:22:29.158Z,3.70
2023-05-31T02:24:32.490Z,3.83
2023-05-31T02:26:34.505Z,3.70
2023-05-31T02:28:36.496Z,3.47
2023-05-31T02:30:39.346Z,4.30
2023-05-31T02:32:42.715Z,3.77
2023-05-31T02:34:45.050Z,4.40
2023-05-31T02:36:47.105Z,3.60
2023-05-31T02:38:49.267Z,3.90
2023-05-31T02:40:51.383Z,3.60
2023-05-31T02:42:53.630Z,3.80
2023-05-31T02:44:55.840Z,3.70
2023-05-31T02:46:57.962Z,3.43
2023-05-31T02:49:00.031Z,4.07
2023-05-31T02:51:04.059Z,4.10
2023-05-31T02:53:32.568Z,3.70
2023-05-31T02:55:43.191Z,3.23
2023-05-31T02:58:33.331Z,3.87
2023-05-31T03:01:48.257Z,4.40
2023-05-31T03:04:10.930Z,4.07
2023-05-31T03:06:15.386Z,3.87
2023-05-31T03:08:17.540Z,4.23
2023-05-31T03:10:19.617Z,3.73
2023-05-31T03:12:21.955Z,4.53
2023-05-31T03:14:24.781Z,3.90
2023-05-31T03:16:29.854Z,4.40
2023-05-31T03:18:32.124Z,4.07
2023-05-31T03:20:34.715Z,3.90
2023-05-31T03:22:37.915Z,3.80
2023-05-31T03:24:41.401Z,4.00
2023-05-31T03:26:43.433Z,3.67
2023-05-31T03:28:45.611Z,4.17
2023-05-31T03:30:47.653Z,3.83
2023-05-31T03:32:49.889Z,4.00
2023-05-31T03:34:52.332Z,4.43
2023-05-31T03:36:54.413Z,4.30
2023-05-31T03:39:17.959Z,4.10
2023-05-31T03:41:19.996Z,5.90
2023-05-31T03:43:22.635Z,3.73
2023-05-31T03:45:24.732Z,4.00
2023-05-31T03:47:28.800Z,4.40
2023-05-31T03:49:31.946Z,3.87
2023-05-31T03:51:34.251Z,4.33
2023-05-31T03:53:36.358Z,5.23
2023-05-31T03:55:38.624Z,4.50
2023-05-31T03:57:40.745Z,4.40
2023-05-31T03:59:43.949Z,4.90
2023-05-31T04:01:47.539Z,4.27
2023-05-31T04:03:50.601Z,4.00
2023-05-31T04:05:53.172Z,4.23
2023-05-31T04:07:55.302Z,4.60
2023-05-31T04:09:57.317Z,4.43
2023-05-31T04:11:59.476Z,3.90
2023-05-31T04:14:01.798Z,4.57
2023-05-31T04:16:04.666Z,4.33
2023-05-31T04:18:08.348Z,4.53
2023-05-31T04:20:11.677Z,4.27
2023-05-31T04:22:14.888Z,4.63
2023-05-31T04:24:17.199Z,4.50
2023-05-31T04:26:20.094Z,4.00
2023-05-31T04:28:23.616Z,4.97
2023-05-31T04:30:25.959Z,4.60
2023-05-31T04:32:31.585Z,4.73
2023-05-31T04:34:37.654Z,4.80
2023-05-31T04:36:41.501Z,4.37
2023-05-31T04:38:43.923Z,4.13
2023-05-31T04:40:46.020Z,4.83
2023-05-31T04:42:48.091Z,3.53
2023-05-31T04:44:59.578Z,3.27
2023-05-31T04:47:05.741Z,3.20
2023-05-31T04:49:08.389Z,3.77
2023-05-31T04:51:10.401Z,3.87
2023-05-31T04:53:12.496Z,3.47
2023-05-31T04:55:14.605Z,3.67
2023-05-31T04:57:17.114Z,3.33
2023-05-31T04:59:24.056Z,3.67
2023-05-31T05:01:26.393Z,3.10
2023-05-31T05:03:37.354Z,3.00
2023-05-31T05:05:39.576Z,3.17
2023-05-31T05:07:42.672Z,3.37
2023-05-31T05:09:45.854Z,4.63
2023-05-31T05:11:48.346Z,3.73
2023-05-31T05:13:52.343Z,4.00
2023-05-31T05:15:55.155Z,3.90
2023-05-31T05:17:57.302Z,3.67
2023-05-31T05:19:59.884Z,3.47
2023-05-31T05:22:03.988Z,3.40
2023-05-31T05:24:06.788Z,3.83
2023-05-31T05:26:09.286Z,3.53
2023-05-31T05:28:11.481Z,3.03
2023-05-31T05:30:14.537Z,3.30
2023-05-31T05:32:16.868Z,3.60
2023-05-31T05:34:21.010Z,3.50
2023-05-31T05:36:23.174Z,3.53
2023-05-31T05:38:28.955Z,3.47
2023-05-31T05:40:31.260Z,3.00
2023-05-31T05:42:33.574Z,3.07
2023-05-31T05:44:35.664Z,2.93
2023-05-31T05:46:39.101Z,3.60
2023-05-31T05:48:41.225Z,3.50
2023-05-31T05:50:44.336Z,4.07
2023-05-31T05:52:46.540Z,4.27
2023-05-31T05:54:48.627Z,3.10
2023-05-31T05:56:50.660Z,3.33
2023-05-31T05:58:52.808Z,2.90
2023-05-31T06:01:20.258Z,3.30
2023-05-31T06:03:26.337Z,3.00
2023-05-31T06:05:29.419Z,2.90
2023-05-31T06:07:31.890Z,4.00
2023-05-31T06:09:34.004Z,3.43
2023-05-31T06:11:36.121Z,3.73
2023-05-31T06:13:38.631Z,3.00
2023-05-31T06:15:41.292Z,3.07
2023-05-31T06:17:44.536Z,3.00
2023-05-31T06:19:46.977Z,2.90
2023-05-31T06:21:50.462Z,2.90
2023-05-31T06:23:56.043Z,2.90
2023-05-31T06:25:58.507Z,3.03
2023-05-31T06:28:00.593Z,3.00
2023-05-31T06:30:03.438Z,2.90
2023-05-31T06:32:12.579Z,3.40
2023-05-31T06:34:18.751Z,3.27
2023-05-31T06:36:20.839Z,3.70
2023-05-31T06:38:24.673Z,3.17
2023-05-31T06:40:26.960Z,3.20
2023-05-31T06:42:29.940Z,3.50
2023-05-31T06:44:41.166Z,2.80
2023-05-31T06:47:02.967Z,3.30
2023-05-31T06:49:27.740Z,2.90
2023-05-31T06:51:52.872Z,2.60
2023-05-31T06:54:13.382Z,3.80
2023-05-31T06:56:16.569Z,2.57
2023-05-31T06:58:19.162Z,2.90
2023-05-31T07:00:23.975Z,2.80
2023-05-31T07:02:28.474Z,2.87
2023-05-31T07:04:30.684Z,3.00
2023-05-31T07:06:33.052Z,2.87
2023-05-31T07:08:35.995Z,2.47
2023-05-31T07:11:07.521Z,3.00
2023-05-31T07:13:09.694Z,2.87
2023-05-31T07:15:12.028Z,2.97
2023-05-31T07:17:14.670Z,2.70
2023-05-31T07:19:16.903Z,2.70
2023-05-31T07:21:19.004Z,3.40
2023-05-31T07:23:21.173Z,2.90
2023-05-31T07:25:23.673Z,3.20
2023-05-31T07:27:25.910Z,2.83
2023-05-31T07:29:28.016Z,2.93
2023-05-31T07:31:30.258Z,2.70
2023-05-31T07:33:32.466Z,2.63
2023-05-31T07:35:34.761Z,2.90
2023-05-31T07:37:37.378Z,2.97
2023-05-31T07:39:40.564Z,2.40
2023-05-31T07:41:44.089Z,3.13
2023-05-31T07:43:47.016Z,3.17
2023-05-31T07:45:49.733Z,3.40
2023-05-31T07:47:53.657Z,3.20
2023-05-31T07:49:56.377Z,3.90
2023-05-31T07:51:58.430Z,3.50
2023-05-31T07:54:00.553Z,3.37
2023-05-31T07:56:03.040Z,3.30
2023-05-31T07:58:05.586Z,3.60
2023-05-31T08:00:09.716Z,3.30
2023-05-31T08:02:15.029Z,2.70
2023-05-31T08:04:17.300Z,3.90
2023-05-31T08:06:19.499Z,3.57
2023-05-31T08:08:21.568Z,3.30
2023-05-31T08:10:23.677Z,3.37
2023-05-31T08:12:27.544Z,3.00
2023-05-31T08:14:33.010Z,2.57
2023-05-31T08:16:35.416Z,2.60
2023-05-31T08:18:37.497Z,3.20
2023-05-31T08:20:40.412Z,2.80
2023-05-31T08:22:46.075Z,3.37
2023-05-31T08:24:48.162Z,3.37
2023-05-31T08:26:51.501Z,3.27
2023-05-31T08:28:53.602Z,2.80
2023-05-31T08:30:56.128Z,3.30
2023-05-31T08:32:59.016Z,2.93
2023-05-31T08:35:01.567Z,2.97
2023-05-31T08:37:04.017Z,3.10
2023-05-31T08:39:08.300Z,2.80
2023-05-31T08:41:10.945Z,2.77
2023-05-31T08:43:17.429Z,2.60
2023-05-31T08:45:19.986Z,2.70
2023-05-31T08:47:48.043Z,2.90
2023-05-31T08:49:51.058Z,3.07
2023-05-31T08:51:53.896Z,2.77
2023-05-31T08:53:58.490Z,2.63
2023-05-31T08:56:09.264Z,2.90
2023-05-31T08:58:11.896Z,2.70
2023-05-31T09:00:15.396Z,2.63
2023-05-31T09:02:18.395Z,2.73
2023-05-31T09:04:21.367Z,3.00
2023-05-31T09:06:24.100Z,2.57
2023-05-31T09:08:26.551Z,2.90
2023-05-31T09:10:29.697Z,2.63
2023-05-31T09:12:32.059Z,2.50
2023-05-31T09:14:35.489Z,2.00
2023-05-31T09:16:38.319Z,2.77
2023-05-31T09:18:41.081Z,2.50
2023-05-31T09:20:45.653Z,2.50
2023-05-31T09:22:50.483Z,2.50
2023-05-31T09:25:00.448Z,2.87
2023-05-31T09:27:02.968Z,2.30
2023-05-31T09:29:07.671Z,2.43
2023-05-31T09:31:09.906Z,1.80
2023-05-31T09:33:14.157Z,2.53
2023-05-31T09:35:21.600Z,2.10
2023-05-31T09:37:25.073Z,2.10
2023-05-31T09:39:27.363Z,2.27
2023-05-31T09:41:29.710Z,2.20
2023-05-31T09:43:31.929Z,2.40
2023-05-31T09:45:34.173Z,2.33
2023-05-31T09:47:38.875Z,2.20
2023-05-31T09:49:43.382Z,2.50
2023-05-31T09:51:52.747Z,2.87
2023-05-31T09:53:57.766Z,2.57
2023-05-31T09:56:02.175Z,2.70
2023-05-31T09:58:04.498Z,2.37
2023-05-31T10:00:17.058Z,2.30
2023-05-31T10:02:19.440Z,2.50
2023-05-31T10:04:21.801Z,2.40
2023-05-31T10:06:24.845Z,2.40
2023-05-31T10:08:27.334Z,2.73
2023-05-31T10:10:29.503Z,2.83
2023-05-31T10:12:33.538Z,2.40
2023-05-31T10:14:39.590Z,2.47
2023-05-31T10:16:47.324Z,2.00
2023-05-31T10:18:51.320Z,2.13
2023-05-31T10:20:58.308Z,2.40
2023-05-31T10:23:03.400Z,2.20
2023-05-31T10:25:08.443Z,2.37
2023-05-31T10:27:20.796Z,2.30
2023-05-31T10:29:27.953Z,2.13
2023-05-31T10:31:34.882Z,2.40
2023-05-31T10:33:37.196Z,2.30
2023-05-31T10:35:39.502Z,2.17
2023-05-31T10:37:45.733Z,2.10
2023-05-31T10:39:56.875Z,2.07
2023-05-31T10:42:10.168Z,1.80
2023-05-31T10:44:23.441Z,2.57
2023-05-31T10:46:29.870Z,1.90
2023-05-31T10:48:45.075Z,2.00
2023-05-31T10:51:01.205Z,2.30
2023-05-31T10:53:13.491Z,2.37
2023-05-31T10:55:18.996Z,1.73
2023-05-31T10:57:21.254Z,2.13
2023-05-31T10:59:24.932Z,2.47
2023-05-31T11:01:30.044Z,1.80
2023-05-31T11:03:35.324Z,2.20
2023-05-31T11:05:37.749Z,2.27
2023-05-31T11:07:40.005Z,2.10
2023-05-31T11:09:43.579Z,2.33
2023-05-31T11:11:48.091Z,2.47
2023-05-31T11:13:58.288Z,2.13
2023-05-31T11:16:00.527Z,2.30
2023-05-31T11:18:02.707Z,2.70
2023-05-31T11:20:06.761Z,2.43
2023-05-31T11:22:11.571Z,2.00
2023-05-31T11:24:45.120Z,2.70
2023-05-31T11:26:54.621Z,2.77
2023-05-31T11:29:02.086Z,2.00
2023-05-31T11:31:04.445Z,2.47
2023-05-31T11:33:16.504Z,2.17
2023-05-31T11:35:18.984Z,2.40
2023-05-31T11:37:24.211Z,2.53
2023-05-31T11:39:27.513Z,2.23
2023-05-31T11:41:30.243Z,2.23
2023-05-31T11:43:32.874Z,2.80
2023-05-31T11:45:36.360Z,2.50
2023-05-31T11:47:38.607Z,2.00
2023-05-31T11:49:40.947Z,2.60
2023-05-31T11:51:46.415Z,2.30
2023-05-31T11:53:49.075Z,2.40
2023-05-31T11:55:51.430Z,2.10
2023-05-31T11:57:55.103Z,2.40
2023-05-31T12:00:13.557Z,2.60
2023-05-31T12:02:15.908Z,2.30
2023-05-31T12:04:18.186Z,2.17
2023-05-31T12:06:22.835Z,2.00
2023-05-31T12:08:27.385Z,2.20
2023-05-31T12:10:31.975Z,2.30
2023-05-31T12:12:34.547Z,2.60
2023-05-31T12:14:36.786Z,1.80
2023-05-31T12:16:39.007Z,2.40
2023-05-31T12:18:41.296Z,2.60
2023-05-31T12:20:43.717Z,2.73
2023-05-31T12:22:46.500Z,2.90
2023-05-31T12:24:52.644Z,2.43
2023-05-31T12:26:55.726Z,2.30
2023-05-31T12:28:57.956Z,1.90
2023-05-31T12:31:00.343Z,2.67
2023-05-31T12:33:04.578Z,2.03
2023-05-31T12:35:08.385Z,2.20
2023-05-31T12:37:11.463Z,2.40
2023-05-31T12:39:17.788Z,2.00
2023-05-31T12:41:20.099Z,2.73
2023-05-31T12:43:22.465Z,2.90
2023-05-31T12:45:25.100Z,2.70
2023-05-31T12:47:28.132Z,2.47
2023-05-31T12:49:32.268Z,2.00
2023-05-31T12:51:37.908Z,2.20
2023-05-31T12:53:41.745Z,2.43
2023-05-31T12:55:44.397Z,2.63
2023-05-31T12:57:46.704Z,2.50
2023-05-31T12:59:58.598Z,2.07
2023-05-31T13:02:02.387Z,2.60
2023-05-31T13:04:05.287Z,2.40
2023-05-31T13:06:07.651Z,2.40
2023-05-31T13:08:09.985Z,2.53
2023-05-31T13:10:12.994Z,2.70
2023-05-31T13:12:15.397Z,2.13
2023-05-31T13:14:25.121Z,2.40
2023-05-31T13:16:28.581Z,2.30
2023-05-31T13:18:30.808Z,2.23
2023-05-31T13:20:33.403Z,2.20
2023-05-31T13:22:35.711Z,2.20
2023-05-31T13:24:37.954Z,2.03
2023-05-31T13:26:40.230Z,2.30
2023-05-31T13:28:42.400Z,2.10
2023-05-31T13:30:44.622Z,2.20
2023-05-31T13:32:47.489Z,2.30
2023-05-31T13:34:49.769Z,2.10
2023-05-31T13:36:52.118Z,2.27
2023-05-31T13:38:54.494Z,2.40
2023-05-31T13:40:56.917Z,2.40
2023-05-31T13:42:59.073Z,2.67
2023-05-31T13:45:01.415Z,2.27
2023-05-31T13:47:03.987Z,2.70
2023-05-31T13:49:06.431Z,2.47
2023-05-31T13:51:10.039Z,2.17
2023-05-31T13:53:12.310Z,2.23
2023-05-31T13:55:14.503Z,2.57
2023-05-31T13:57:16.731Z,2.00
2023-05-31T13:59:19.126Z,2.33
2023-05-31T14:01:21.404Z,2.33
2023-05-31T14:03:23.828Z,1.80
2023-05-31T14:05:29.020Z,2.20
2023-05-31T14:07:31.227Z,2.77
2023-05-31T14:09:34.542Z,1.70
2023-05-31T14:11:36.825Z,2.60
2023-05-31T14:13:40.125Z,2.70
2023-05-31T14:15:42.439Z,2.10
2023-05-31T14:17:44.867Z,2.87
2023-05-31T14:19:47.143Z,1.90
2023-05-31T14:21:49.479Z,2.30
2023-05-31T14:23:51.835Z,2.53
2023-05-31T14:25:54.083Z,2.33
2023-05-31T14:27:56.249Z,2.90
2023-05-31T14:29:58.517Z,2.00
2023-05-31T14:32:01.496Z,2.50
2023-05-31T14:34:04.948Z,1.93
2023-05-31T14:36:07.861Z,2.80
2023-05-31T14:38:16.728Z,2.00
2023-05-31T14:40:25.998Z,1.70
2023-05-31T14:42:28.209Z,2.57
2023-05-31T14:44:30.629Z,2.20
2023-05-31T14:46:32.922Z,2.33
2023-05-31T14:48:35.156Z,2.10
2023-05-31T14:50:37.405Z,2.33
2023-05-31T14:52:39.593Z,2.10
2023-05-31T14:54:41.810Z,2.10
2023-05-31T14:56:44.249Z,2.20
2023-05-31T14:58:48.313Z,2.33
2023-05-31T15:00:51.009Z,2.10
2023-05-31T15:02:53.274Z,2.23
2023-05-31T15:04:55.530Z,2.00
2023-05-31T15:06:57.753Z,2.63
2023-05-31T15:08:59.936Z,2.57
2023-05-31T15:11:02.613Z,2.40
2023-05-31T15:13:05.126Z,2.20
2023-05-31T15:15:07.812Z,2.10
2023-05-31T15:17:10.051Z,2.40
2023-05-31T15:19:12.340Z,2.03
2023-05-31T15:21:14.714Z,2.30
2023-05-31T15:23:17.912Z,2.03
2023-05-31T15:25:22.172Z,2.30
2023-05-31T15:27:24.367Z,2.17
2023-05-31T15:29:26.821Z,2.87
2023-05-31T15:31:29.177Z,1.80
2023-05-31T15:33:31.821Z,1.87
2023-05-31T15:35:36.971Z,2.10
2023-05-31T15:37:39.280Z,1.97
2023-05-31T15:39:41.578Z,1.87
2023-05-31T15:41:43.816Z,1.90
2023-05-31T15:43:46.021Z,1.80
2023-05-31T15:45:48.552Z,2.17
2023-05-31T15:47:50.893Z,1.80
2023-05-31T15:49:53.737Z,1.83
2023-05-31T15:51:55.964Z,1.87
2023-05-31T15:53:58.180Z,1.83
2023-05-31T15:56:01.091Z,3.03
2023-05-31T15:58:04.499Z,1.70
2023-05-31T16:00:07.649Z,2.07
2023-05-31T16:02:15.809Z,1.70
2023-05-31T16:04:18.128Z,1.90
2023-05-31T16:06:20.603Z,2.00
2023-05-31T16:08:22.878Z,2.30
2023-05-31T16:10:25.068Z,1.97
2023-05-31T16:12:27.235Z,2.43
2023-05-31T16:14:29.491Z,2.10
2023-05-31T16:16:33.144Z,2.00
2023-05-31T16:18:35.402Z,1.87
2023-05-31T16:20:37.602Z,1.60
2023-05-31T16:22:39.823Z,1.93
2023-05-31T16:24:42.057Z,2.10
2023-05-31T16:26:45.029Z,2.07
2023-05-31T16:28:47.409Z,2.07
2023-05-31T16:30:49.688Z,4.70
2023-05-31T16:32:52.300Z,2.20
2023-05-31T16:34:54.561Z,2.40
2023-05-31T16:36:56.862Z,1.90
2023-05-31T16:39:01.479Z,1.83
2023-05-31T16:41:03.928Z,1.83
2023-05-31T16:43:06.409Z,1.90
2023-05-31T16:45:09.087Z,2.30
2023-05-31T16:47:11.726Z,2.30
2023-05-31T16:49:13.940Z,2.20
2023-05-31T16:51:16.343Z,1.77
2023-05-31T16:53:19.036Z,2.00
2023-05-31T16:55:24.346Z,2.00
2023-05-31T16:57:26.571Z,2.00
2023-05-31T16:59:28.822Z,1.90
2023-05-31T17:01:31.121Z,2.03
2023-05-31T17:03:33.418Z,2.00
2023-05-31T17:05:35.781Z,2.20
2023-05-31T17:07:38.043Z,2.50
2023-05-31T17:09:40.433Z,2.10
2023-05-31T17:11:42.712Z,2.20
2023-05-31T17:13:45.194Z,2.33
2023-05-31T17:15:47.539Z,2.00
2023-05-31T17:17:49.786Z,2.27
2023-05-31T17:19:52.082Z,1.80
2023-05-31T17:21:54.501Z,2.13
2023-05-31T17:23:56.682Z,1.97
2023-05-31T17:25:58.941Z,2.13
2023-05-31T17:28:01.212Z,2.07
2023-05-31T17:30:03.693Z,2.83
2023-05-31T17:32:08.925Z,1.70
2023-05-31T17:34:11.285Z,1.73
2023-05-31T17:36:13.721Z,1.83
2023-05-31T17:38:16.194Z,1.90
2023-05-31T17:40:18.611Z,1.87
2023-05-31T17:42:23.808Z,1.60
2023-05-31T17:44:26.024Z,1.93
2023-05-31T17:46:29.027Z,1.73
2023-05-31T17:48:31.350Z,2.67
2023-05-31T17:50:33.607Z,2.27
2023-05-31T17:52:35.926Z,2.30
2023-05-31T17:54:38.202Z,2.10
2023-05-31T17:56:41.911Z,1.93
2023-05-31T17:58:44.269Z,2.10
2023-05-31T18:00:46.567Z,2.00
2023-05-31T18:02:48.967Z,1.80
2023-05-31T18:04:51.371Z,1.90
2023-05-31T18:06:54.772Z,1.93
2023-05-31T18:08:57.165Z,1.90
2023-05-31T18:10:59.637Z,2.00
2023-05-31T18:13:01.933Z,1.83
2023-05-31T18:15:04.586Z,1.73
2023-05-31T18:17:07.191Z,1.70
2023-05-31T18:19:09.429Z,1.83
2023-05-31T18:21:11.720Z,2.10
2023-05-31T18:23:13.890Z,1.60
2023-05-31T18:25:16.104Z,2.17
2023-05-31T18:27:20.014Z,2.27
2023-05-31T18:29:25.455Z,2.77
2023-05-31T18:31:31.679Z,2.40
2023-05-31T18:33:35.125Z,2.00
2023-05-31T18:35:38.564Z,2.13
2023-05-31T18:37:40.916Z,2.20
2023-05-31T18:39:43.992Z,2.50
2023-05-31T18:41:46.313Z,2.10
2023-05-31T18:43:48.726Z,2.07
2023-05-31T18:45:50.932Z,2.20
2023-05-31T18:47:53.914Z,2.13
2023-05-31T18:49:56.492Z,1.90
2023-05-31T18:51:58.752Z,1.90
2023-05-31T18:54:03.742Z,2.50
2023-05-31T18:56:06.166Z,2.10
2023-05-31T18:58:08.521Z,1.77
2023-05-31T19:00:11.462Z,2.47
2023-05-31T19:02:13.705Z,2.63
2023-05-31T19:04:15.949Z,2.10
2023-05-31T19:06:18.224Z,2.73
2023-05-31T19:08:21.430Z,2.10
2023-05-31T19:10:23.627Z,2.40
2023-05-31T19:12:31.407Z,2.30
2023-05-31T19:14:34.399Z,3.80
2023-05-31T19:16:36.807Z,2.13
2023-05-31T19:18:39.112Z,2.63
2023-05-31T19:20:46.946Z,2.50
2023-05-31T19:22:55.745Z,2.30
2023-05-31T19:24:57.972Z,2.90
2023-05-31T19:27:00.529Z,2.73
2023-05-31T19:29:04.152Z,2.70
2023-05-31T19:31:06.638Z,2.63
2023-05-31T19:33:09.121Z,2.27
2023-05-31T19:35:11.543Z,2.33
2023-05-31T19:37:14.893Z,2.67
2023-05-31T19:39:18.498Z,2.70
2023-05-31T19:41:21.338Z,2.60
2023-05-31T19:43:23.621Z,1.97
2023-05-31T19:45:25.926Z,2.60
2023-05-31T19:47:28.150Z,2.10
2023-05-31T19:49:30.688Z,2.40
2023-05-31T19:51:32.919Z,2.20
2023-05-31T19:53:35.145Z,2.37
2023-05-31T19:55:39.169Z,2.13
2023-05-31T19:57:41.520Z,2.30
2023-05-31T19:59:46.332Z,2.27
2023-05-31T20:01:48.521Z,2.20
2023-05-31T20:03:51.615Z,2.20
2023-05-31T20:05:53.934Z,2.43
2023-05-31T20:07:56.196Z,2.00
2023-05-31T20:09:59.259Z,2.23
2023-05-31T20:12:01.495Z,2.20
2023-05-31T20:14:04.121Z,2.23
2023-05-31T20:16:06.507Z,2.10
2023-05-31T20:18:08.841Z,2.70
2023-05-31T20:20:13.101Z,2.10
2023-05-31T20:22:15.570Z,2.50
2023-05-31T20:24:17.863Z,2.40
2023-05-31T20:26:20.694Z,2.43
2023-05-31T20:28:22.912Z,2.30
2023-05-31T20:30:25.152Z,2.50
2023-05-31T20:32:27.335Z,2.23
2023-05-31T20:34:29.620Z,2.13
2023-05-31T20:36:35.248Z,1.70
2023-05-31T20:38:37.673Z,1.97
2023-05-31T20:40:39.930Z,2.00
2023-05-31T20:42:42.149Z,2.30
2023-05-31T20:44:44.923Z,2.50
2023-05-31T20:46:49.935Z,2.07
2023-05-31T20:48:53.233Z,2.40
2023-05-31T20:50:55.457Z,2.03
2023-05-31T20:52:57.663Z,2.20
2023-05-31T20:55:00.425Z,2.53
2023-05-31T20:57:03.905Z,2.57
2023-05-31T20:59:06.880Z,2.03
2023-05-31T21:01:09.097Z,2.23
2023-05-31T21:03:11.894Z,2.30
2023-05-31T21:05:14.355Z,2.10
2023-05-31T21:07:16.567Z,2.50
2023-05-31T21:09:18.768Z,2.73
2023-05-31T21:11:21.030Z,2.47
2023-05-31T21:13:23.245Z,2.20
2023-05-31T21:15:25.501Z,2.37
2023-05-31T21:17:29.107Z,2.03
2023-05-31T21:19:31.490Z,2.10
2023-05-31T21:21:33.685Z,2.43
2023-05-31T21:23:35.932Z,2.37
2023-05-31T21:25:39.178Z,2.50
2023-05-31T21:27:42.775Z,2.80
2023-05-31T21:29:45.002Z,2.53
2023-05-31T21:31:47.552Z,2.50
2023-05-31T21:33:49.797Z,2.70
2023-05-31T21:35:52.174Z,2.90
2023-05-31T21:37:56.898Z,2.30
2023-05-31T21:39:59.169Z,2.60
2023-05-31T21:42:03.092Z,2.10
2023-05-31T21:44:05.377Z,2.67
2023-05-31T21:46:09.892Z,2.20
2023-05-31T21:48:12.213Z,2.67
2023-05-31T21:50:14.800Z,2.53
2023-05-31T21:52:17.008Z,2.27
2023-05-31T21:54:19.214Z,2.60
2023-05-31T21:56:21.589Z,2.30
2023-05-31T21:58:23.876Z,2.77
2023-05-31T22:00:26.073Z,2.73
2023-05-31T22:02:28.339Z,2.67
2023-05-31T22:04:30.522Z,2.40
2023-05-31T22:06:32.766Z,2.00
2023-05-31T22:08:34.906Z,2.23
2023-05-31T22:10:37.206Z,2.90
2023-05-31T22:12:39.478Z,2.90
2023-05-31T22:14:42.655Z,2.57
2023-05-31T22:16:49.182Z,2.50
2023-05-31T22:18:53.017Z,2.37
2023-05-31T22:20:56.198Z,4.63
2023-05-31T22:22:59.520Z,2.90
2023-05-31T22:25:12.798Z,2.80
2023-05-31T22:27:17.974Z,2.73
2023-05-31T22:29:20.327Z,3.50
2023-05-31T22:31:24.281Z,2.60
2023-05-31T22:33:26.774Z,2.70
2023-05-31T22:35:28.951Z,2.60
2023-05-31T22:37:31.467Z,2.30
2023-05-31T22:39:33.500Z,3.07
2023-05-31T22:41:35.651Z,3.20
2023-05-31T22:43:37.730Z,3.03
2023-05-31T22:45:39.816Z,3.20
2023-05-31T22:47:42.214Z,2.67
2023-05-31T22:49:44.393Z,2.80
2023-05-31T22:51:46.669Z,2.70
2023-05-31T22:53:48.834Z,2.57
2023-05-31T22:55:50.956Z,3.40
2023-05-31T22:57:53.078Z,2.67
2023-05-31T22:59:55.236Z,2.87
2023-05-31T23:01:57.326Z,3.10
2023-05-31T23:04:00.708Z,2.90
2023-05-31T23:06:03.116Z,2.50
2023-05-31T23:08:06.223Z,3.20
2023-05-31T23:10:09.595Z,2.80
2023-05-31T23:12:11.809Z,2.70
2023-05-31T23:14:13.844Z,2.90
2023-05-31T23:16:16.125Z,3.10
2023-05-31T23:18:18.527Z,3.23
2023-05-31T23:20:20.627Z,2.97
2023-05-31T23:22:22.645Z,2.60
2023-05-31T23:24:24.810Z,2.87
2023-05-31T23:26:27.453Z,2.80
2023-05-31T23:28:29.558Z,3.00
2023-05-31T23:30:31.631Z,2.40
2023-05-31T23:32:33.779Z,2.70
2023-05-31T23:34:35.841Z,2.63
2023-05-31T23:36:38.117Z,3.33
2023-05-31T23:38:41.480Z,3.10
2023-05-31T23:40:43.512Z,3.50
2023-05-31T23:42:45.740Z,2.60
2023-05-31T23:44:47.773Z,2.47
2023-05-31T23:46:49.766Z,2.40
2023-05-31T23:48:52.439Z,2.70
2023-05-31T23:50:54.397Z,2.67
2023-05-31T23:52:56.870Z,2.53
2023-05-31T23:54:58.939Z,3.20
2023-05-31T23:57:01.817Z,2.63
2023-05-31T23:59:03.968Z,2.87
